• Join FlightAware (Why Join?)
  • Login
  • US Flag 
05:51AM EST


 

Airport Tracker/Info


-or-


 

Live Flight TrackerFlight Track Log ✈ EJA695 ✈ 20-Jul-2013 ✈ KBHB - KPWM

Flight Track Log - Related Links

Times and Time Zones

All times are in EDT time to prevent confusion due to time zone crossing. See the EJA695 flight status page for this flight to view local times or setup timezone preferences in your user account.

Time Position Orientation Groundspeed Altitude Reporting Facility
EDT Latitude Longitude Course Direction KTS MPH feet Rate Location/Type
04:02PM 44.2263 -68.8999 240° Southwest  Level FlightAware Approximate
04:03PM 44.1888 -68.9893 240° Southwest  Level FlightAware Approximate
04:04PM 44.1513 -69.0786 240° Southwest  Level FlightAware Approximate
04:05PM 44.1136 -69.1678 240° Southwest  Level FlightAware Approximate
04:06PM 44.0729 -69.2542 235° Southwest  Level FlightAware Approximate
04:07PM 44.0333 -69.3402 270° West  Level FlightAware Approximate
04:08PM 43.9997 -69.4309 240° Southwest  Level FlightAware Approximate
04:09PM 43.9624 -69.5202 240° Southwest  Level FlightAware Approximate
04:10PM 43.9260 -69.6101 241° Southwest  Level FlightAware Approximate
04:11PM 43.8900 -69.7002 241° Southwest  Level FlightAware Approximate
04:12PM 43.8539 -69.7903 241° Southwest  Level FlightAware Approximate
04:13PM 43.8162 -69.8789 239° Southwest  Level FlightAware Approximate
04:14PM 43.7794 -69.9683 241° Southwest  Level FlightAware Approximate
04:15PM 43.7406 -70.0401 241° Southwest  Level FlightAware Approximate
04:16PM 43.7163 -70.1341 235° Southwest  Level FlightAware Approximate
04:17PM 43.6740 -70.2186 235° Southwest  Level FlightAware Approximate
04:18PM 43.6333 -70.3000 235° Southwest  Level FlightAware Approximate
04:19PM 43.6456 -70.3086 235° Southwest  Level Estimated
04:20PM 43.6456 -70.3086 235° Southwest  Level Estimated
04:21PM 43.6456 -70.3086 235° Southwest  Level Estimated
04:22PM 43.6456 -70.3086 235° Southwest  Level Estimated
04:23PM 43.6456 -70.3086 235° Southwest  Level Estimated
04:24PM 43.6456 -70.3086 235° Southwest  Level Estimated
04:25PM 43.6456 -70.3086 235° Southwest  Level Estimated
04:26PM 43.6456 -70.3086 235° Southwest  Level Estimated
04:27PM 43.6456 -70.3086 235° Southwest  Level Estimated